Hasanuddin International Airport
WAAA : now visible

Airfield :











YOU CAN JOIN US ON...

 
LOGIN :

Register | Disclaimer

   EN    FR    IT 

 









Legend :    VFR   Marginal VFR   IFR   Intensive IFR   Very Intensive IFR
Visi :
Ceiling :
>= 8 km
>= 3000ft
5 to 8 km
1000 to 3000 ft
1500m to 5 km
500 to 1000 ft
800 to 1500m
200 to 500 ft
< 800m
< 200 ft
Symbols :   Thunderstorms  Fog  Heavy snow  Heavy precipitations  Wind > 20 kt






- Airport Elevation : 47 ft
- IATA code : UPG


WAAA - Hasanuddin International

CURRENT METAR :
  • 030000Z 11004KT 9999 FEW020 28/24 Q1011 NOSIG

EXPIRED METARs :
  • 022330Z 09003KT 060V120 9999 FEW020 27/25 Q1011 NOSIG
  • 022300Z 01001KT 9999 FEW019 25/24 Q1010 NOSIG
  • 022230Z 11001KT 9999 FEW019 24/24 Q1010 NOSIG
  • 022200Z 16001KT 8000 FEW019 25/25 Q1009 NOSIG
  • 022130Z 18001KT 8000 FEW019 24/24 Q1009 NOSIG

TAF TAF WAAA
Valid from the 03 at 00:00 until the 04 at 06:00 UTC


022300Z 0300/0406 12003KT 8000 SCT019
BECMG 0301/0303 30010KT 9999
TEMPO 0309/0312 6000 -RA FEW018CB
BECMG 0312/0314 12003KT 8000



MET'MAP, your aeronautical weather chart ! - Copyright ORBIFLY December 2007 - Disclaimer

ORBIFLY MET'MAP TEAM :

Programming & Development : Alexandra Zaïnal
Concept & original design : Baudouin d'Aumeries
Assistance for programming : Marc-Olivier Méhu
Technical & hardware support : Manuel Goepfert

Contact : metmap@orbifly.com




SOURCES & CREDITS :

   NOAA       Earth
Advisory